sensor_id;sensor_type;location;lat;lon;timestamp;temperature;humidity
20911;DHT22;10615;42.702;23.314;2022-09-27T00:00:59;16.90;99.90
20911;DHT22;10615;42.702;23.314;2022-09-27T00:02:00;16.90;99.90
20911;DHT22;10615;42.702;23.314;2022-09-27T00:03:01;16.80;99.90
20911;DHT22;10615;42.702;23.314;2022-09-27T00:04:02;16.80;99.90
20911;DHT22;10615;42.702;23.314;2022-09-27T00:05:02;16.80;99.90
20911;DHT22;10615;42.702;23.314;2022-09-27T00:06:23;16.80;99.90
20911;DHT22;10615;42.702;23.314;2022-09-27T00:07:24;16.80;99.90
20911;DHT22;10615;42.702;23.314;2022-09-27T00:08:25;16.80;99.90
20911;DHT22;10615;42.702;23.314;2022-09-27T00:09:26;16.80;99.90
20911;DHT22;10615;42.702;23.314;2022-09-27T00:10:26;16.70;99.90
20911;DHT22;10615;42.702;23.314;2022-09-27T00:11:33;16.70;99.90
20911;DHT22;10615;42.702;23.314;2022-09-27T00:12:35;16.80;99.90
20911;DHT22;10615;42.702;23.314;2022-09-27T00:13:35;16.80;99.90
20911;DHT22;10615;42.702;23.314;2022-09-27T00:14:36;16.80;99.90
20911;DHT22;10615;42.702;23.314;2022-09-27T00:15:37;16.70;99.90
20911;DHT22;10615;42.702;23.314;2022-09-27T00:16:39;16.80;99.90
20911;DHT22;10615;42.702;23.314;2022-09-27T00:17:41;16.70;99.90
20911;DHT22;10615;42.702;23.314;2022-09-27T00:18:41;16.70;99.90
20911;DHT22;10615;42.702;23.314;2022-09-27T00:19:42;16.70;99.90
20911;DHT22;10615;42.702;23.314;2022-09-27T00:20:43;16.70;99.90
20911;DHT22;10615;42.702;23.314;2022-09-27T00:21:45;16.70;99.90
20911;DHT22;10615;42.702;23.314;2022-09-27T00:22:47;16.70;99.90
20911;DHT22;10615;42.702;23.314;2022-09-27T00:23:48;16.70;99.90
20911;DHT22;10615;42.702;23.314;2022-09-27T00:24:49;16.60;99.90
20911;DHT22;10615;42.702;23.314;2022-09-27T00:25:57;16.60;99.90
20911;DHT22;10615;42.702;23.314;2022-09-27T00:26:58;16.60;99.90
20911;DHT22;10615;42.702;23.314;2022-09-27T00:27:59;16.60;99.90
20911;DHT22;10615;42.702;23.314;2022-09-27T00:28:59;16.70;99.90
20911;DHT22;10615;42.702;23.314;2022-09-27T00:30:00;16.70;99.90
20911;DHT22;10615;42.702;23.314;2022-09-27T00:31:02;16.70;99.90
20911;DHT22;10615;42.702;23.314;2022-09-27T00:32:03;16.70;99.90
20911;DHT22;10615;42.702;23.314;2022-09-27T00:33:03;16.80;99.90
20911;DHT22;10615;42.702;23.314;2022-09-27T00:34:05;16.80;99.90
20911;DHT22;10615;42.702;23.314;2022-09-27T00:35:07;16.70;99.90
20911;DHT22;10615;42.702;23.314;2022-09-27T00:36:09;16.80;99.90
20911;DHT22;10615;42.702;23.314;2022-09-27T00:37:10;16.70;99.90
20911;DHT22;10615;42.702;23.314;2022-09-27T00:38:11;16.70;99.90
20911;DHT22;10615;42.702;23.314;2022-09-27T00:39:12;16.70;99.90
20911;DHT22;10615;42.702;23.314;2022-09-27T00:40:13;16.70;99.90
20911;DHT22;10615;42.702;23.314;2022-09-27T00:41:24;16.70;99.90
20911;DHT22;10615;42.702;23.314;2022-09-27T00:42:25;16.60;99.90
20911;DHT22;10615;42.702;23.314;2022-09-27T00:43:25;16.60;99.90
20911;DHT22;10615;42.702;23.314;2022-09-27T00:45:33;16.60;99.90
20911;DHT22;10615;42.702;23.314;2022-09-27T00:46:44;16.60;99.90
20911;DHT22;10615;42.702;23.314;2022-09-27T00:47:55;16.60;99.90
20911;DHT22;10615;42.702;23.314;2022-09-27T00:50:28;16.60;99.90
20911;DHT22;10615;42.702;23.314;2022-09-27T00:51:32;16.60;99.90
20911;DHT22;10615;42.702;23.314;2022-09-27T00:53:03;16.60;99.90
20911;DHT22;10615;42.702;23.314;2022-09-27T00:54:10;16.60;99.90
20911;DHT22;10615;42.702;23.314;2022-09-27T00:55:16;16.50;99.90
20911;DHT22;10615;42.702;23.314;2022-09-27T00:56:19;16.50;99.90
20911;DHT22;10615;42.702;23.314;2022-09-27T00:57:22;16.50;99.90
20911;DHT22;10615;42.702;23.314;2022-09-27T00:58:27;16.40;99.90
20911;DHT22;10615;42.702;23.314;2022-09-27T00:59:34;16.30;99.90
20911;DHT22;10615;42.702;23.314;2022-09-27T01:00:41;16.30;99.90
20911;DHT22;10615;42.702;23.314;2022-09-27T01:01:43;16.20;99.90
20911;DHT22;10615;42.702;23.314;2022-09-27T01:02:48;16.10;99.90
20911;DHT22;10615;42.702;23.314;2022-09-27T01:04:00;16.10;99.90
20911;DHT22;10615;42.702;23.314;2022-09-27T01:05:05;16.00;99.90
20911;DHT22;10615;42.702;23.314;2022-09-27T01:06:08;15.90;99.90
20911;DHT22;10615;42.702;23.314;2022-09-27T01:07:10;15.90;99.90
20911;DHT22;10615;42.702;23.314;2022-09-27T01:08:10;15.80;99.90
20911;DHT22;10615;42.702;23.314;2022-09-27T01:09:11;15.90;99.90
20911;DHT22;10615;42.702;23.314;2022-09-27T01:10:13;15.80;99.90
20911;DHT22;10615;42.702;23.314;2022-09-27T01:11:34;15.80;99.90
20911;DHT22;10615;42.702;23.314;2022-09-27T01:16:02;15.80;99.90
20911;DHT22;10615;42.702;23.314;2022-09-27T01:29:04;15.40;99.90
20911;DHT22;10615;42.702;23.314;2022-09-27T01:34:05;15.30;99.90
20911;DHT22;10615;42.702;23.314;2022-09-27T01:35:28;15.40;99.90
20911;DHT22;10615;42.702;23.314;2022-09-27T01:37:47;15.50;99.90
20911;DHT22;10615;42.702;23.314;2022-09-27T01:40:27;15.60;99.90
20911;DHT22;10615;42.702;23.314;2022-09-27T01:42:54;15.70;99.90
20911;DHT22;10615;42.702;23.314;2022-09-27T01:44:08;15.70;99.90
20911;DHT22;10615;42.702;23.314;2022-09-27T01:45:18;15.70;99.90
20911;DHT22;10615;42.702;23.314;2022-09-27T01:46:28;15.80;99.90
20911;DHT22;10615;42.702;23.314;2022-09-27T01:47:52;15.70;99.90
20911;DHT22;10615;42.702;23.314;2022-09-27T01:48:54;15.70;99.90
20911;DHT22;10615;42.702;23.314;2022-09-27T01:51:07;15.70;99.90
20911;DHT22;10615;42.702;23.314;2022-09-27T01:52:10;15.80;99.90
20911;DHT22;10615;42.702;23.314;2022-09-27T01:53:24;15.80;99.90
20911;DHT22;10615;42.702;23.314;2022-09-27T01:54:36;15.80;99.90
20911;DHT22;10615;42.702;23.314;2022-09-27T01:55:39;15.90;99.90
20911;DHT22;10615;42.702;23.314;2022-09-27T01:56:45;15.80;99.90
20911;DHT22;10615;42.702;23.314;2022-09-27T01:57:52;15.90;99.90
20911;DHT22;10615;42.702;23.314;2022-09-27T01:59:05;15.90;99.90
20911;DHT22;10615;42.702;23.314;2022-09-27T02:00:09;16.00;99.90
20911;DHT22;10615;42.702;23.314;2022-09-27T02:01:11;16.00;99.90
20911;DHT22;10615;42.702;23.314;2022-09-27T02:02:15;16.00;99.90
20911;DHT22;10615;42.702;23.314;2022-09-27T02:03:31;15.90;99.90
20911;DHT22;10615;42.702;23.314;2022-09-27T02:04:34;15.90;99.90
20911;DHT22;10615;42.702;23.314;2022-09-27T02:05:42;15.70;99.90
20911;DHT22;10615;42.702;23.314;2022-09-27T02:06:47;15.70;99.90
20911;DHT22;10615;42.702;23.314;2022-09-27T02:07:59;15.60;99.90
20911;DHT22;10615;42.702;23.314;2022-09-27T02:09:19;15.60;99.90
20911;DHT22;10615;42.702;23.314;2022-09-27T02:10:29;15.60;99.90
20911;DHT22;10615;42.702;23.314;2022-09-27T02:11:33;15.60;99.90
20911;DHT22;10615;42.702;23.314;2022-09-27T02:12:41;15.60;99.90
20911;DHT22;10615;42.702;23.314;2022-09-27T02:14:11;15.50;99.90
20911;DHT22;10615;42.702;23.314;2022-09-27T02:15:15;15.50;99.90
20911;DHT22;10615;42.702;23.314;2022-09-27T02:16:30;15.50;99.90
20911;DHT22;10615;42.702;23.314;2022-09-27T02:18:00;15.50;99.90
20911;DHT22;10615;42.702;23.314;2022-09-27T02:20:23;15.40;99.90
20911;DHT22;10615;42.702;23.314;2022-09-27T02:21:32;15.40;99.90
20911;DHT22;10615;42.702;23.314;2022-09-27T02:22:38;15.30;99.90
20911;DHT22;10615;42.702;23.314;2022-09-27T02:23:50;15.30;99.90
20911;DHT22;10615;42.702;23.314;2022-09-27T02:26:32;15.20;99.90
20911;DHT22;10615;42.702;23.314;2022-09-27T02:27:58;15.20;99.90
20911;DHT22;10615;42.702;23.314;2022-09-27T02:29:07;15.10;99.90
20911;DHT22;10615;42.702;23.314;2022-09-27T02:30:12;15.10;99.90
20911;DHT22;10615;42.702;23.314;2022-09-27T02:31:14;15.10;99.90
20911;DHT22;10615;42.702;23.314;2022-09-27T02:32:15;15.10;99.90
20911;DHT22;10615;42.702;23.314;2022-09-27T02:33:22;15.00;99.90
20911;DHT22;10615;42.702;23.314;2022-09-27T02:34:27;15.00;99.90
20911;DHT22;10615;42.702;23.314;2022-09-27T02:35:31;15.00;99.90
20911;DHT22;10615;42.702;23.314;2022-09-27T02:36:32;14.90;99.90
20911;DHT22;10615;42.702;23.314;2022-09-27T02:37:33;14.90;99.90
20911;DHT22;10615;42.702;23.314;2022-09-27T02:38:34;14.90;99.90
20911;DHT22;10615;42.702;23.314;2022-09-27T02:39:34;14.80;99.90
20911;DHT22;10615;42.702;23.314;2022-09-27T02:40:42;14.80;99.90
20911;DHT22;10615;42.702;23.314;2022-09-27T02:41:44;14.80;99.90
20911;DHT22;10615;42.702;23.314;2022-09-27T02:42:45;14.80;99.90
20911;DHT22;10615;42.702;23.314;2022-09-27T02:43:48;14.80;99.90
20911;DHT22;10615;42.702;23.314;2022-09-27T02:44:50;14.80;99.90
20911;DHT22;10615;42.702;23.314;2022-09-27T02:52:07;14.90;99.90
20911;DHT22;10615;42.702;23.314;2022-09-27T02:53:37;14.90;99.90
20911;DHT22;10615;42.702;23.314;2022-09-27T02:59:02;14.90;99.90
20911;DHT22;10615;42.702;23.314;2022-09-27T03:01:22;15.00;99.90
20911;DHT22;10615;42.702;23.314;2022-09-27T03:05:10;15.00;99.90
20911;DHT22;10615;42.702;23.314;2022-09-27T03:06:16;14.90;99.90
20911;DHT22;10615;42.702;23.314;2022-09-27T03:07:17;14.90;99.90
20911;DHT22;10615;42.702;23.314;2022-09-27T03:08:18;14.90;99.90
20911;DHT22;10615;42.702;23.314;2022-09-27T03:09:26;14.80;99.90
20911;DHT22;10615;42.702;23.314;2022-09-27T03:10:29;14.80;99.90
20911;DHT22;10615;42.702;23.314;2022-09-27T03:11:30;14.80;99.90
20911;DHT22;10615;42.702;23.314;2022-09-27T03:12:31;14.80;99.90
20911;DHT22;10615;42.702;23.314;2022-09-27T03:13:32;14.80;99.90
20911;DHT22;10615;42.702;23.314;2022-09-27T03:14:34;14.90;99.90
20911;DHT22;10615;42.702;23.314;2022-09-27T03:15:34;14.80;99.90
20911;DHT22;10615;42.702;23.314;2022-09-27T03:16:35;14.80;99.90
20911;DHT22;10615;42.702;23.314;2022-09-27T03:17:35;14.80;99.90
20911;DHT22;10615;42.702;23.314;2022-09-27T03:18:36;14.80;99.90
20911;DHT22;10615;42.702;23.314;2022-09-27T03:19:37;14.80;99.90
20911;DHT22;10615;42.702;23.314;2022-09-27T03:20:37;14.80;99.90
20911;DHT22;10615;42.702;23.314;2022-09-27T03:21:38;14.80;99.90
20911;DHT22;10615;42.702;23.314;2022-09-27T03:22:39;14.80;99.90
20911;DHT22;10615;42.702;23.314;2022-09-27T03:23:40;14.80;99.90
20911;DHT22;10615;42.702;23.314;2022-09-27T03:24:41;14.80;99.90
20911;DHT22;10615;42.702;23.314;2022-09-27T03:25:41;14.80;99.90
20911;DHT22;10615;42.702;23.314;2022-09-27T03:26:42;14.90;99.90
20911;DHT22;10615;42.702;23.314;2022-09-27T03:27:43;14.90;99.90
20911;DHT22;10615;42.702;23.314;2022-09-27T03:28:44;14.90;99.90
20911;DHT22;10615;42.702;23.314;2022-09-27T03:29:45;14.90;99.90
20911;DHT22;10615;42.702;23.314;2022-09-27T03:30:46;15.00;99.90
20911;DHT22;10615;42.702;23.314;2022-09-27T03:31:47;15.00;99.90
20911;DHT22;10615;42.702;23.314;2022-09-27T03:32:47;15.00;99.90
20911;DHT22;10615;42.702;23.314;2022-09-27T03:33:48;15.10;99.90
20911;DHT22;10615;42.702;23.314;2022-09-27T03:34:49;15.20;99.90
20911;DHT22;10615;42.702;23.314;2022-09-27T03:35:49;15.20;99.90
20911;DHT22;10615;42.702;23.314;2022-09-27T03:36:50;15.20;99.90
20911;DHT22;10615;42.702;23.314;2022-09-27T03:37:51;15.30;99.90
20911;DHT22;10615;42.702;23.314;2022-09-27T03:38:51;15.30;99.90
20911;DHT22;10615;42.702;23.314;2022-09-27T03:39:52;15.30;99.90
20911;DHT22;10615;42.702;23.314;2022-09-27T03:40:53;15.30;99.90
20911;DHT22;10615;42.702;23.314;2022-09-27T03:41:53;15.40;99.90
20911;DHT22;10615;42.702;23.314;2022-09-27T03:42:54;15.40;99.90
20911;DHT22;10615;42.702;23.314;2022-09-27T03:43:55;15.40;99.90
20911;DHT22;10615;42.702;23.314;2022-09-27T03:44:57;15.50;99.90
20911;DHT22;10615;42.702;23.314;2022-09-27T03:45:57;15.50;99.90
20911;DHT22;10615;42.702;23.314;2022-09-27T03:46:58;15.50;99.90
20911;DHT22;10615;42.702;23.314;2022-09-27T03:47:59;15.50;99.90
20911;DHT22;10615;42.702;23.314;2022-09-27T03:49:00;15.50;99.90
20911;DHT22;10615;42.702;23.314;2022-09-27T03:50:01;15.50;99.90
20911;DHT22;10615;42.702;23.314;2022-09-27T03:51:01;15.50;99.90
20911;DHT22;10615;42.702;23.314;2022-09-27T03:52:03;15.50;99.90
20911;DHT22;10615;42.702;23.314;2022-09-27T03:53:04;15.50;99.90
20911;DHT22;10615;42.702;23.314;2022-09-27T03:54:05;15.60;99.90
20911;DHT22;10615;42.702;23.314;2022-09-27T03:55:06;15.60;99.90
20911;DHT22;10615;42.702;23.314;2022-09-27T03:56:06;15.60;99.90
20911;DHT22;10615;42.702;23.314;2022-09-27T03:57:07;15.60;99.90
20911;DHT22;10615;42.702;23.314;2022-09-27T03:58:08;15.60;99.90
20911;DHT22;10615;42.702;23.314;2022-09-27T03:59:08;15.60;99.90
20911;DHT22;10615;42.702;23.314;2022-09-27T04:00:10;15.60;99.90
20911;DHT22;10615;42.702;23.314;2022-09-27T04:01:10;15.60;99.90
20911;DHT22;10615;42.702;23.314;2022-09-27T04:02:11;15.60;99.90
20911;DHT22;10615;42.702;23.314;2022-09-27T04:03:12;15.60;99.90
20911;DHT22;10615;42.702;23.314;2022-09-27T04:04:12;15.60;99.90
20911;DHT22;10615;42.702;23.314;2022-09-27T04:05:14;15.60;99.90
20911;DHT22;10615;42.702;23.314;2022-09-27T04:06:15;15.60;99.90
20911;DHT22;10615;42.702;23.314;2022-09-27T04:07:17;15.60;99.90
20911;DHT22;10615;42.702;23.314;2022-09-27T04:08:19;15.60;99.90
20911;DHT22;10615;42.702;23.314;2022-09-27T04:09:21;15.60;99.90
20911;DHT22;10615;42.702;23.314;2022-09-27T04:10:22;15.60;99.90
20911;DHT22;10615;42.702;23.314;2022-09-27T04:11:22;15.60;99.90
20911;DHT22;10615;42.702;23.314;2022-09-27T04:12:23;15.60;99.90
20911;DHT22;10615;42.702;23.314;2022-09-27T04:13:24;15.60;99.90
20911;DHT22;10615;42.702;23.314;2022-09-27T04:14:24;15.70;99.90
20911;DHT22;10615;42.702;23.314;2022-09-27T04:15:25;15.70;99.90
20911;DHT22;10615;42.702;23.314;2022-09-27T04:16:26;15.70;99.90
20911;DHT22;10615;42.702;23.314;2022-09-27T04:17:26;15.70;99.90
20911;DHT22;10615;42.702;23.314;2022-09-27T04:18:28;15.70;99.90
20911;DHT22;10615;42.702;23.314;2022-09-27T04:19:28;15.70;99.90
20911;DHT22;10615;42.702;23.314;2022-09-27T04:20:29;15.70;99.90
20911;DHT22;10615;42.702;23.314;2022-09-27T04:21:30;15.70;99.90
20911;DHT22;10615;42.702;23.314;2022-09-27T04:22:30;15.70;99.90
20911;DHT22;10615;42.702;23.314;2022-09-27T04:23:31;15.70;99.90
20911;DHT22;10615;42.702;23.314;2022-09-27T04:24:33;15.80;99.90
20911;DHT22;10615;42.702;23.314;2022-09-27T04:25:34;15.70;99.90
20911;DHT22;10615;42.702;23.314;2022-09-27T04:26:35;15.80;99.90
20911;DHT22;10615;42.702;23.314;2022-09-27T04:27:37;15.80;99.90
20911;DHT22;10615;42.702;23.314;2022-09-27T04:28:38;15.80;99.90
20911;DHT22;10615;42.702;23.314;2022-09-27T04:29:38;15.80;99.90
20911;DHT22;10615;42.702;23.314;2022-09-27T04:30:42;15.80;99.90
20911;DHT22;10615;42.702;23.314;2022-09-27T04:31:43;15.80;99.90
20911;DHT22;10615;42.702;23.314;2022-09-27T04:32:44;15.80;99.90
20911;DHT22;10615;42.702;23.314;2022-09-27T04:33:44;15.80;99.90
20911;DHT22;10615;42.702;23.314;2022-09-27T04:34:45;15.80;99.90
20911;DHT22;10615;42.702;23.314;2022-09-27T04:36:04;15.80;99.90
20911;DHT22;10615;42.702;23.314;2022-09-27T04:37:24;15.80;99.90
20911;DHT22;10615;42.702;23.314;2022-09-27T04:38:25;15.80;99.90
20911;DHT22;10615;42.702;23.314;2022-09-27T04:39:26;15.80;99.90
20911;DHT22;10615;42.702;23.314;2022-09-27T04:40:26;15.80;99.90
20911;DHT22;10615;42.702;23.314;2022-09-27T04:41:27;15.90;99.90
20911;DHT22;10615;42.702;23.314;2022-09-27T04:42:28;15.90;99.90
20911;DHT22;10615;42.702;23.314;2022-09-27T04:43:29;15.90;99.90
20911;DHT22;10615;42.702;23.314;2022-09-27T04:44:30;16.00;99.90
20911;DHT22;10615;42.702;23.314;2022-09-27T04:45:30;16.00;99.90
20911;DHT22;10615;42.702;23.314;2022-09-27T04:46:31;16.00;99.90
20911;DHT22;10615;42.702;23.314;2022-09-27T04:47:33;16.00;99.90
20911;DHT22;10615;42.702;23.314;2022-09-27T04:48:34;16.00;99.90
20911;DHT22;10615;42.702;23.314;2022-09-27T04:49:35;16.10;99.90
20911;DHT22;10615;42.702;23.314;2022-09-27T04:50:36;16.10;99.90
20911;DHT22;10615;42.702;23.314;2022-09-27T04:51:37;16.10;99.90
20911;DHT22;10615;42.702;23.314;2022-09-27T04:52:37;16.10;99.90
20911;DHT22;10615;42.702;23.314;2022-09-27T04:53:38;16.10;99.90
20911;DHT22;10615;42.702;23.314;2022-09-27T04:54:39;16.10;99.90
20911;DHT22;10615;42.702;23.314;2022-09-27T04:55:43;16.10;99.90
20911;DHT22;10615;42.702;23.314;2022-09-27T04:56:44;16.10;99.90
20911;DHT22;10615;42.702;23.314;2022-09-27T04:57:46;16.20;99.90
20911;DHT22;10615;42.702;23.314;2022-09-27T04:58:47;16.10;99.90
20911;DHT22;10615;42.702;23.314;2022-09-27T04:59:47;16.10;99.90
20911;DHT22;10615;42.702;23.314;2022-09-27T05:00:51;16.10;99.90
20911;DHT22;10615;42.702;23.314;2022-09-27T05:01:51;16.10;99.90
20911;DHT22;10615;42.702;23.314;2022-09-27T05:02:52;16.10;99.90
20911;DHT22;10615;42.702;23.314;2022-09-27T05:03:53;16.10;99.90
20911;DHT22;10615;42.702;23.314;2022-09-27T05:04:54;16.10;99.90
20911;DHT22;10615;42.702;23.314;2022-09-27T05:05:59;16.10;99.90
20911;DHT22;10615;42.702;23.314;2022-09-27T05:07:00;16.10;99.90
20911;DHT22;10615;42.702;23.314;2022-09-27T05:08:00;16.10;99.90
20911;DHT22;10615;42.702;23.314;2022-09-27T05:09:01;16.10;99.90
20911;DHT22;10615;42.702;23.314;2022-09-27T05:10:02;16.10;99.90
20911;DHT22;10615;42.702;23.314;2022-09-27T05:11:03;16.10;99.90
20911;DHT22;10615;42.702;23.314;2022-09-27T05:12:04;16.20;99.90
20911;DHT22;10615;42.702;23.314;2022-09-27T05:13:07;16.20;99.90
20911;DHT22;10615;42.702;23.314;2022-09-27T05:14:07;16.20;99.90
20911;DHT22;10615;42.702;23.314;2022-09-27T05:15:08;16.10;99.90
20911;DHT22;10615;42.702;23.314;2022-09-27T05:16:09;16.20;99.90
20911;DHT22;10615;42.702;23.314;2022-09-27T05:17:10;16.20;99.90
20911;DHT22;10615;42.702;23.314;2022-09-27T05:18:12;16.10;99.90
20911;DHT22;10615;42.702;23.314;2022-09-27T05:19:12;16.20;99.90
20911;DHT22;10615;42.702;23.314;2022-09-27T05:20:13;16.10;99.90
20911;DHT22;10615;42.702;23.314;2022-09-27T05:21:14;16.10;99.90
20911;DHT22;10615;42.702;23.314;2022-09-27T05:22:15;16.00;99.90
20911;DHT22;10615;42.702;23.314;2022-09-27T05:23:16;16.00;99.90
20911;DHT22;10615;42.702;23.314;2022-09-27T05:24:17;15.90;99.90
20911;DHT22;10615;42.702;23.314;2022-09-27T05:25:18;15.90;99.90
20911;DHT22;10615;42.702;23.314;2022-09-27T05:26:19;15.80;99.90
20911;DHT22;10615;42.702;23.314;2022-09-27T05:27:20;15.80;99.90
20911;DHT22;10615;42.702;23.314;2022-09-27T05:28:21;15.80;99.90
20911;DHT22;10615;42.702;23.314;2022-09-27T05:29:23;15.80;99.90
20911;DHT22;10615;42.702;23.314;2022-09-27T05:30:26;15.80;99.90
20911;DHT22;10615;42.702;23.314;2022-09-27T05:31:27;15.90;99.90
20911;DHT22;10615;42.702;23.314;2022-09-27T05:32:28;15.90;99.90
20911;DHT22;10615;42.702;23.314;2022-09-27T05:33:29;16.00;99.90
20911;DHT22;10615;42.702;23.314;2022-09-27T05:34:30;16.00;99.90
20911;DHT22;10615;42.702;23.314;2022-09-27T05:35:32;16.00;99.90
20911;DHT22;10615;42.702;23.314;2022-09-27T05:36:33;16.00;99.90
20911;DHT22;10615;42.702;23.314;2022-09-27T05:37:34;16.00;99.90
20911;DHT22;10615;42.702;23.314;2022-09-27T05:38:35;15.90;99.90
20911;DHT22;10615;42.702;23.314;2022-09-27T05:39:36;15.90;99.90
20911;DHT22;10615;42.702;23.314;2022-09-27T05:40:37;15.90;99.90
20911;DHT22;10615;42.702;23.314;2022-09-27T05:41:37;15.90;99.90
20911;DHT22;10615;42.702;23.314;2022-09-27T05:42:39;15.80;99.90
20911;DHT22;10615;42.702;23.314;2022-09-27T05:43:40;15.70;99.90
20911;DHT22;10615;42.702;23.314;2022-09-27T05:44:41;15.70;99.90
20911;DHT22;10615;42.702;23.314;2022-09-27T05:45:47;15.70;99.90
20911;DHT22;10615;42.702;23.314;2022-09-27T05:46:48;15.60;99.90
20911;DHT22;10615;42.702;23.314;2022-09-27T05:47:57;15.60;99.90
20911;DHT22;10615;42.702;23.314;2022-09-27T05:48:57;15.60;99.90
20911;DHT22;10615;42.702;23.314;2022-09-27T05:49:58;15.60;99.90
20911;DHT22;10615;42.702;23.314;2022-09-27T05:50:59;15.50;99.90
20911;DHT22;10615;42.702;23.314;2022-09-27T05:52:00;15.60;99.90
20911;DHT22;10615;42.702;23.314;2022-09-27T05:53:01;15.50;99.90
20911;DHT22;10615;42.702;23.314;2022-09-27T05:54:01;15.50;99.90
20911;DHT22;10615;42.702;23.314;2022-09-27T05:55:02;15.50;99.90
20911;DHT22;10615;42.702;23.314;2022-09-27T05:56:03;15.50;99.90
20911;DHT22;10615;42.702;23.314;2022-09-27T05:57:04;15.50;99.90
20911;DHT22;10615;42.702;23.314;2022-09-27T05:58:08;15.50;99.90
20911;DHT22;10615;42.702;23.314;2022-09-27T05:59:09;15.50;99.90
20911;DHT22;10615;42.702;23.314;2022-09-27T06:00:10;15.50;99.90
20911;DHT22;10615;42.702;23.314;2022-09-27T06:01:11;15.50;99.90
20911;DHT22;10615;42.702;23.314;2022-09-27T06:02:12;15.40;99.90
20911;DHT22;10615;42.702;23.314;2022-09-27T06:03:12;15.40;99.90
20911;DHT22;10615;42.702;23.314;2022-09-27T06:04:13;15.40;99.90
20911;DHT22;10615;42.702;23.314;2022-09-27T06:05:14;15.40;99.90
20911;DHT22;10615;42.702;23.314;2022-09-27T06:06:14;15.30;99.90
20911;DHT22;10615;42.702;23.314;2022-09-27T06:07:16;15.30;99.90
20911;DHT22;10615;42.702;23.314;2022-09-27T06:08:16;15.30;99.90
20911;DHT22;10615;42.702;23.314;2022-09-27T06:09:19;15.30;99.90
20911;DHT22;10615;42.702;23.314;2022-09-27T06:10:20;15.30;99.90
20911;DHT22;10615;42.702;23.314;2022-09-27T06:11:20;15.40;99.90
20911;DHT22;10615;42.702;23.314;2022-09-27T06:12:21;15.40;99.90
20911;DHT22;10615;42.702;23.314;2022-09-27T06:13:22;15.40;99.90
20911;DHT22;10615;42.702;23.314;2022-09-27T06:14:23;15.40;99.90
20911;DHT22;10615;42.702;23.314;2022-09-27T06:15:24;15.40;99.90
20911;DHT22;10615;42.702;23.314;2022-09-27T06:16:25;15.40;99.90
20911;DHT22;10615;42.702;23.314;2022-09-27T06:17:25;15.50;99.90
20911;DHT22;10615;42.702;23.314;2022-09-27T06:18:26;15.50;99.90
20911;DHT22;10615;42.702;23.314;2022-09-27T06:19:27;15.50;99.90
20911;DHT22;10615;42.702;23.314;2022-09-27T06:20:28;15.50;99.90
20911;DHT22;10615;42.702;23.314;2022-09-27T06:21:29;15.60;99.90
20911;DHT22;10615;42.702;23.314;2022-09-27T06:22:31;15.60;99.90
20911;DHT22;10615;42.702;23.314;2022-09-27T06:23:32;15.70;99.90
20911;DHT22;10615;42.702;23.314;2022-09-27T06:24:33;15.80;99.90
20911;DHT22;10615;42.702;23.314;2022-09-27T06:25:35;15.90;99.90
20911;DHT22;10615;42.702;23.314;2022-09-27T06:26:35;16.00;99.90
20911;DHT22;10615;42.702;23.314;2022-09-27T06:27:36;16.10;99.90
20911;DHT22;10615;42.702;23.314;2022-09-27T06:28:37;16.20;99.90
20911;DHT22;10615;42.702;23.314;2022-09-27T06:29:38;16.20;99.90
20911;DHT22;10615;42.702;23.314;2022-09-27T06:30:40;16.20;99.90
20911;DHT22;10615;42.702;23.314;2022-09-27T06:31:41;16.30;99.90
20911;DHT22;10615;42.702;23.314;2022-09-27T06:32:41;16.30;99.90
20911;DHT22;10615;42.702;23.314;2022-09-27T06:33:42;16.30;99.90
20911;DHT22;10615;42.702;23.314;2022-09-27T06:34:43;16.30;99.90
20911;DHT22;10615;42.702;23.314;2022-09-27T06:35:44;16.30;99.90
20911;DHT22;10615;42.702;23.314;2022-09-27T06:36:48;16.30;99.90
20911;DHT22;10615;42.702;23.314;2022-09-27T06:37:50;16.30;99.90
20911;DHT22;10615;42.702;23.314;2022-09-27T06:38:51;16.30;99.90
20911;DHT22;10615;42.702;23.314;2022-09-27T06:39:52;16.30;99.90
20911;DHT22;10615;42.702;23.314;2022-09-27T06:40:53;16.30;99.90
20911;DHT22;10615;42.702;23.314;2022-09-27T06:41:57;16.30;99.90
20911;DHT22;10615;42.702;23.314;2022-09-27T06:43:18;16.30;99.90
20911;DHT22;10615;42.702;23.314;2022-09-27T06:44:19;16.30;99.90
20911;DHT22;10615;42.702;23.314;2022-09-27T06:45:20;16.20;99.90
20911;DHT22;10615;42.702;23.314;2022-09-27T06:46:21;16.20;99.90
20911;DHT22;10615;42.702;23.314;2022-09-27T06:47:21;16.20;99.90
20911;DHT22;10615;42.702;23.314;2022-09-27T06:48:23;16.20;99.90
20911;DHT22;10615;42.702;23.314;2022-09-27T06:49:24;16.20;99.90
20911;DHT22;10615;42.702;23.314;2022-09-27T06:50:25;16.20;99.90
20911;DHT22;10615;42.702;23.314;2022-09-27T06:51:25;16.20;99.90
20911;DHT22;10615;42.702;23.314;2022-09-27T06:52:26;16.10;99.90
20911;DHT22;10615;42.702;23.314;2022-09-27T06:53:27;16.20;99.90
20911;DHT22;10615;42.702;23.314;2022-09-27T06:54:29;16.20;99.90
20911;DHT22;10615;42.702;23.314;2022-09-27T06:55:29;16.20;99.90
20911;DHT22;10615;42.702;23.314;2022-09-27T06:56:30;16.20;99.90
20911;DHT22;10615;42.702;23.314;2022-09-27T06:57:31;16.10;99.90
20911;DHT22;10615;42.702;23.314;2022-09-27T06:58:50;16.10;99.90
20911;DHT22;10615;42.702;23.314;2022-09-27T07:00:10;16.00;99.90
20911;DHT22;10615;42.702;23.314;2022-09-27T07:01:29;15.90;99.90
20911;DHT22;10615;42.702;23.314;2022-09-27T07:02:30;15.90;99.90
20911;DHT22;10615;42.702;23.314;2022-09-27T07:03:31;15.80;99.90
20911;DHT22;10615;42.702;23.314;2022-09-27T07:04:33;15.80;99.90
20911;DHT22;10615;42.702;23.314;2022-09-27T07:05:34;15.80;99.90
20911;DHT22;10615;42.702;23.314;2022-09-27T07:06:35;15.80;99.90
20911;DHT22;10615;42.702;23.314;2022-09-27T07:07:36;15.80;99.90
20911;DHT22;10615;42.702;23.314;2022-09-27T07:08:37;15.90;99.90
20911;DHT22;10615;42.702;23.314;2022-09-27T07:09:38;16.00;99.90
20911;DHT22;10615;42.702;23.314;2022-09-27T07:10:39;16.00;99.90
20911;DHT22;10615;42.702;23.314;2022-09-27T07:11:40;16.00;99.90
20911;DHT22;10615;42.702;23.314;2022-09-27T07:12:45;16.10;99.90
20911;DHT22;10615;42.702;23.314;2022-09-27T07:13:48;16.10;99.90
20911;DHT22;10615;42.702;23.314;2022-09-27T07:14:50;16.20;99.90
20911;DHT22;10615;42.702;23.314;2022-09-27T07:15:50;16.30;99.90
20911;DHT22;10615;42.702;23.314;2022-09-27T07:16:51;16.30;99.90